Time;durP1;ratioP1;P1;durP2;ratioP2;P2;SDS_P1;SDS_P2;PMS_P1;PMS_P2;Temp;Humidity;BMP_temperature;BMP_pressure;BME280_temperature;BME280_humidity;BME280_pressure;Samples;Min_cycle;Max_cycle;Signal;HPM_P1;HPM_P2
2023/07/23 00:01:51;;;;;;;2.80;2.60;;;24.30;51.90;;;;;;5104401;28;20256;-86
2023/07/23 00:04:20;;;;;;;3.00;2.40;;;24.30;51.80;;;;;;5105340;28;20201;-87
2023/07/23 00:06:46;;;;;;;3.70;2.77;;;24.20;51.90;;;;;;5104261;28;20274;-87
2023/07/23 00:09:12;;;;;;;3.00;2.37;;;24.20;51.80;;;;;;5104088;28;20265;-87
2023/07/23 00:11:37;;;;;;;4.03;2.70;;;24.20;51.90;;;;;;5101908;28;20198;-87
2023/07/23 00:14:03;;;;;;;2.93;2.60;;;24.20;51.90;;;;;;5104406;28;20205;-87
2023/07/23 00:16:28;;;;;;;2.97;2.30;;;24.30;51.90;;;;;;5099713;28;20194;-87
2023/07/23 00:18:56;;;;;;;4.13;2.43;;;24.20;51.90;;;;;;5102138;28;20178;-87
2023/07/23 00:21:23;;;;;;;2.97;2.50;;;24.20;51.90;;;;;;5109047;28;20182;-87
2023/07/23 00:23:51;;;;;;;3.07;2.50;;;24.20;52.00;;;;;;5101217;28;20205;-87
2023/07/23 00:26:16;;;;;;;2.90;2.60;;;24.20;51.90;;;;;;5105301;28;20178;-87
2023/07/23 00:28:42;;;;;;;4.40;2.50;;;24.20;52.00;;;;;;5101716;28;20183;-87
2023/07/23 00:31:07;;;;;;;3.43;2.60;;;24.10;52.00;;;;;;5104167;28;20186;-87
2023/07/23 00:33:33;;;;;;;4.53;2.70;;;24.10;52.00;;;;;;5100652;28;20199;-87
2023/07/23 00:35:59;;;;;;;3.07;2.40;;;24.10;52.00;;;;;;5105285;28;20190;-87
2023/07/23 00:38:24;;;;;;;3.40;2.60;;;24.10;51.90;;;;;;5101758;28;20193;-87
2023/07/23 00:40:50;;;;;;;3.17;2.40;;;24.10;51.90;;;;;;5105715;28;20461;-87
2023/07/23 00:43:20;;;;;;;2.50;2.30;;;24.10;51.90;;;;;;5100620;28;20210;-87
2023/07/23 00:45:45;;;;;;;2.50;2.30;;;24.10;51.90;;;;;;5106676;28;20223;-87
2023/07/23 00:48:14;;;;;;;3.97;2.60;;;24.10;51.90;;;;;;5107692;28;20259;-87
2023/07/23 00:50:40;;;;;;;2.77;2.47;;;24.10;52.00;;;;;;5104049;28;20293;-87
2023/07/23 00:53:06;;;;;;;3.23;2.37;;;24.10;52.00;;;;;;5104845;28;20301;-87
2023/07/23 00:55:35;;;;;;;3.70;2.40;;;24.10;52.10;;;;;;5103463;28;20590;-87
2023/07/23 00:58:03;;;;;;;3.47;2.47;;;24.10;52.00;;;;;;5105101;28;20247;-87
2023/07/23 01:00:29;;;;;;;2.97;2.20;;;24.10;52.00;;;;;;5104049;28;20194;-87
2023/07/23 01:02:54;;;;;;;3.47;2.60;;;24.10;52.00;;;;;;5105569;28;20189;-87
2023/07/23 01:05:21;;;;;;;2.80;2.50;;;24.10;52.00;;;;;;5103272;28;20211;-87
2023/07/23 01:07:51;;;;;;;3.83;2.50;;;24.00;52.00;;;;;;5106317;28;20166;-87
2023/07/23 01:10:19;;;;;;;2.70;2.30;;;24.10;52.00;;;;;;5102991;28;20174;-87
2023/07/23 01:12:45;;;;;;;2.93;2.57;;;24.10;52.10;;;;;;5106413;28;20189;-87
2023/07/23 01:15:13;;;;;;;3.60;2.50;;;24.00;52.00;;;;;;5105802;28;20182;-87
2023/07/23 01:17:40;;;;;;;3.13;2.47;;;24.00;52.00;;;;;;5103084;28;20197;-87
2023/07/23 01:20:07;;;;;;;3.10;2.60;;;24.00;52.00;;;;;;5105304;28;20190;-87
2023/07/23 01:22:35;;;;;;;4.13;2.60;;;24.00;52.00;;;;;;5104761;28;20226;-87
2023/07/23 01:25:01;;;;;;;2.87;2.20;;;24.00;52.00;;;;;;5103104;28;20572;-87
2023/07/23 01:27:27;;;;;;;2.50;2.20;;;24.00;52.10;;;;;;5101554;28;20189;-87
2023/07/23 01:29:52;;;;;;;3.20;2.37;;;24.00;52.00;;;;;;5104877;28;20174;-87
2023/07/23 01:32:18;;;;;;;3.37;2.63;;;24.00;52.00;;;;;;5106003;28;20221;-87
2023/07/23 01:34:44;;;;;;;2.53;2.33;;;24.00;51.90;;;;;;5104146;28;20439;-87
2023/07/23 01:37:10;;;;;;;3.37;2.73;;;23.90;52.10;;;;;;5102882;28;20472;-87
2023/07/23 01:39:36;;;;;;;5.10;2.90;;;23.90;52.00;;;;;;5103818;28;20179;-87
2023/07/23 01:42:09;;;;;;;7.47;3.10;;;23.80;52.00;;;;;;5110155;28;20426;-87
2023/07/23 01:44:38;;;;;;;4.03;2.93;;;23.70;51.90;;;;;;5102815;28;20199;-86
2023/07/23 01:47:04;;;;;;;3.30;2.67;;;23.70;51.90;;;;;;5101140;28;20209;-86
2023/07/23 01:49:32;;;;;;;4.37;3.00;;;23.60;52.30;;;;;;5106635;28;20198;-86
2023/07/23 01:51:58;;;;;;;2.87;2.50;;;23.60;52.10;;;;;;5101533;28;20455;-86
2023/07/23 01:54:24;;;;;;;4.03;2.93;;;23.70;52.10;;;;;;5103930;28;20182;-86
2023/07/23 01:56:51;;;;;;;4.27;2.93;;;23.50;51.90;;;;;;5096378;28;20213;-86
2023/07/23 01:59:17;;;;;;;3.40;3.10;;;23.40;52.30;;;;;;5104229;28;20235;-87
2023/07/23 02:01:45;;;;;;;4.27;3.33;;;23.30;52.30;;;;;;5105522;28;20185;-86
2023/07/23 02:04:11;;;;;;;4.07;2.97;;;22.90;53.00;;;;;;5100998;28;20209;-86
2023/07/23 02:06:37;;;;;;;3.90;3.47;;;22.90;52.90;;;;;;5104835;28;20559;-86
2023/07/23 02:09:03;;;;;;;4.27;3.10;;;22.80;52.90;;;;;;5102609;28;20174;-87
2023/07/23 02:11:29;;;;;;;4.47;3.43;;;22.50;53.50;;;;;;5103039;28;20228;-87
2023/07/23 02:13:58;;;;;;;4.53;3.30;;;22.50;53.40;;;;;;5103141;28;20191;-88
2023/07/23 02:16:24;;;;;;;4.90;3.40;;;22.50;53.50;;;;;;5100979;28;20505;-87
2023/07/23 02:18:50;;;;;;;5.97;3.90;;;22.20;53.80;;;;;;5104453;28;20591;-87
2023/07/23 02:21:15;;;;;;;5.93;3.57;;;22.00;54.10;;;;;;5104998;28;20579;-87
2023/07/23 02:23:44;;;;;;;4.90;3.60;;;22.00;53.90;;;;;;5102052;28;20260;-86
2023/07/23 02:26:10;;;;;;;4.00;3.40;;;21.90;54.00;;;;;;5113143;28;20519;-86
2023/07/23 02:28:40;;;;;;;6.20;3.60;;;21.90;54.00;;;;;;5101160;28;20549;-87
2023/07/23 02:31:06;;;;;;;5.33;3.70;;;21.90;53.80;;;;;;5103887;28;20182;-86
2023/07/23 02:33:31;;;;;;;4.03;3.63;;;21.60;54.10;;;;;;5111414;28;20278;-87
2023/07/23 02:35:57;;;;;;;4.53;3.70;;;21.50;54.20;;;;;;5104856;28;20548;-86
2023/07/23 02:38:23;;;;;;;4.33;3.40;;;21.40;54.50;;;;;;5101578;28;20194;-86
2023/07/23 02:40:54;;;;;;;5.80;3.70;;;21.40;54.40;;;;;;5104204;28;20192;-86
2023/07/23 02:43:19;;;;;;;5.30;3.50;;;21.20;54.70;;;;;;5102825;28;20217;-87
2023/07/23 02:45:46;;;;;;;4.50;3.47;;;21.10;54.70;;;;;;5102019;28;20212;-86
2023/07/23 02:48:11;;;;;;;5.77;3.53;;;20.90;54.90;;;;;;5101071;28;20198;-87
2023/07/23 02:50:39;;;;;;;8.40;4.27;;;21.00;55.20;;;;;;5101016;28;20417;-86
2023/07/23 02:53:10;;;;;;;4.57;3.90;;;21.00;54.80;;;;;;5103827;28;20188;-86
2023/07/23 02:55:39;;;;;;;4.77;3.53;;;21.00;54.80;;;;;;5099795;28;20195;-87
2023/07/23 02:58:04;;;;;;;3.93;3.53;;;21.10;54.50;;;;;;5101003;28;20572;-87
2023/07/23 03:00:30;;;;;;;5.03;3.47;;;21.00;54.50;;;;;;5104126;28;20183;-87
2023/07/23 03:02:56;;;;;;;6.43;3.90;;;20.90;54.90;;;;;;5100086;28;20272;-86
2023/07/23 03:05:24;;;;;;;4.37;3.50;;;20.90;54.90;;;;;;5100764;28;20460;-86
2023/07/23 03:07:53;;;;;;;4.80;3.67;;;20.90;54.90;;;;;;5105686;28;20188;-86
2023/07/23 03:10:19;;;;;;;6.20;3.83;;;20.90;54.80;;;;;;5106920;28;20505;-87
2023/07/23 03:12:44;;;;;;;4.97;4.33;;;20.80;54.80;;;;;;5108807;28;20173;-87
2023/07/23 03:15:10;;;;;;;4.97;3.77;;;20.80;54.90;;;;;;5106759;28;20189;-86
2023/07/23 03:17:38;;;;;;;4.63;3.67;;;20.70;54.80;;;;;;5108008;28;20185;-87
2023/07/23 03:20:05;;;;;;;6.57;4.00;;;20.70;54.90;;;;;;5105196;28;20208;-86
2023/07/23 03:22:30;;;;;;;4.87;3.80;;;20.60;55.10;;;;;;5105091;28;20213;-86
2023/07/23 03:24:56;;;;;;;6.87;4.10;;;20.70;55.00;;;;;;5108098;28;20213;-86
2023/07/23 03:27:21;;;;;;;5.17;3.90;;;20.70;54.90;;;;;;5106775;28;20208;-88
2023/07/23 03:29:48;;;;;;;4.83;3.93;;;20.70;55.00;;;;;;5106474;28;20467;-86
2023/07/23 03:32:13;;;;;;;4.90;3.70;;;20.60;55.10;;;;;;5105549;28;20182;-86
2023/07/23 03:34:39;;;;;;;5.07;4.20;;;20.70;55.00;;;;;;5108301;28;20260;-87
2023/07/23 03:37:05;;;;;;;5.07;3.80;;;20.60;55.10;;;;;;5105107;28;20576;-87
2023/07/23 03:39:30;;;;;;;4.77;3.70;;;20.50;55.20;;;;;;5107675;28;20184;-87
2023/07/23 03:41:56;;;;;;;5.37;3.60;;;20.50;55.20;;;;;;5106730;28;20269;-87
2023/07/23 03:44:22;;;;;;;8.10;3.73;;;20.60;55.10;;;;;;5108323;28;20212;-86
2023/07/23 03:47:11;;;;;;;5.77;3.80;;;20.70;55.10;;;;;;5106589;28;20433;-86
2023/07/23 03:49:38;;;;;;;4.20;3.60;;;20.80;54.90;;;;;;5107400;28;20184;-86
2023/07/23 03:52:04;;;;;;;6.70;4.03;;;21.00;54.70;;;;;;5105490;28;20277;-86
2023/07/23 03:54:33;;;;;;;6.77;4.03;;;20.90;54.60;;;;;;5106552;28;20223;-86
2023/07/23 03:56:59;;;;;;;5.20;4.10;;;20.80;54.70;;;;;;5108092;28;20217;-86
2023/07/23 03:59:51;;;;;;;5.17;3.60;;;20.80;54.60;;;;;;5105491;28;20232;-87
2023/07/23 04:02:16;;;;;;;5.17;3.83;;;20.80;55.20;;;;;;5102568;28;20447;-87
2023/07/23 04:04:42;;;;;;;4.73;3.63;;;20.80;54.60;;;;;;5104467;28;20218;-87
2023/07/23 04:07:08;;;;;;;5.00;3.77;;;20.80;54.70;;;;;;5106941;28;20174;-86
2023/07/23 04:09:34;;;;;;;5.63;3.83;;;21.00;54.40;;;;;;5104325;28;20237;-87
2023/07/23 04:12:00;;;;;;;5.23;3.63;;;21.10;54.30;;;;;;5106712;28;20469;-86
2023/07/23 04:14:29;;;;;;;5.07;4.20;;;21.10;54.30;;;;;;5103787;28;20291;-86
2023/07/23 04:16:55;;;;;;;4.80;3.73;;;21.20;54.10;;;;;;5108294;28;20563;-86
2023/07/23 04:19:22;;;;;;;4.70;3.83;;;21.30;53.90;;;;;;5103005;28;20187;-86
2023/07/23 04:21:48;;;;;;;5.20;3.80;;;21.30;53.90;;;;;;5106921;28;20185;-86
2023/07/23 04:24:17;;;;;;;4.53;4.13;;;21.20;53.80;;;;;;5103392;28;20415;-86
2023/07/23 04:26:42;;;;;;;5.63;3.70;;;21.30;53.90;;;;;;5103619;28;20525;-87
2023/07/23 04:29:08;;;;;;;4.63;3.60;;;21.40;53.80;;;;;;5103177;28;20282;-86
2023/07/23 04:31:34;;;;;;;4.40;3.87;;;21.60;53.40;;;;;;5105687;28;20277;-87
2023/07/23 04:34:00;;;;;;;4.17;3.70;;;21.70;53.50;;;;;;5104467;28;20269;-86
2023/07/23 04:36:26;;;;;;;6.10;3.70;;;21.80;53.20;;;;;;5105224;28;20189;-86
2023/07/23 04:38:51;;;;;;;3.90;3.50;;;21.70;53.00;;;;;;5104721;28;20183;-86
2023/07/23 04:41:17;;;;;;;4.10;3.40;;;21.60;53.30;;;;;;5105799;28;20228;-87
2023/07/23 04:43:42;;;;;;;4.10;3.37;;;21.70;53.30;;;;;;5105080;28;20318;-86
2023/07/23 04:46:09;;;;;;;4.03;3.63;;;21.70;53.20;;;;;;5105469;28;20216;-86
2023/07/23 04:48:37;;;;;;;5.33;3.57;;;21.80;53.00;;;;;;5106405;28;20174;-87
2023/07/23 04:51:07;;;;;;;5.40;3.60;;;21.60;52.80;;;;;;5104414;28;20438;-86
2023/07/23 04:53:33;;;;;;;4.00;3.60;;;21.50;53.40;;;;;;5106704;28;20564;-86
2023/07/23 04:56:00;;;;;;;4.77;3.77;;;21.60;53.30;;;;;;5104250;28;20227;-87
2023/07/23 04:58:26;;;;;;;3.97;3.50;;;21.70;53.10;;;;;;5106282;28;20178;-86
2023/07/23 05:00:53;;;;;;;4.33;3.40;;;21.80;52.90;;;;;;5107724;28;20524;-87
2023/07/23 05:03:21;;;;;;;4.30;3.60;;;21.90;52.90;;;;;;5102529;28;20186;-87
2023/07/23 05:05:50;;;;;;;4.47;3.47;;;22.00;52.50;;;;;;5102144;28;20202;-86
2023/07/23 05:08:21;;;;;;;4.53;3.73;;;22.00;52.50;;;;;;5104959;28;20441;-86
2023/07/23 05:10:47;;;;;;;6.60;3.40;;;22.10;52.40;;;;;;5103160;28;20181;-86
2023/07/23 05:13:14;;;;;;;4.27;3.13;;;22.30;52.30;;;;;;5104646;27;20174;-86
2023/07/23 05:15:39;;;;;;;4.80;3.60;;;22.30;52.10;;;;;;5103737;28;20245;-86
2023/07/23 05:18:05;;;;;;;4.40;3.60;;;22.40;52.10;;;;;;5102391;28;20185;-86
2023/07/23 05:20:31;;;;;;;3.40;3.10;;;22.30;52.00;;;;;;5104811;28;20542;-87
2023/07/23 05:22:56;;;;;;;3.50;3.20;;;22.30;51.90;;;;;;5104186;28;20180;-86
2023/07/23 05:25:22;;;;;;;3.83;3.00;;;22.40;52.10;;;;;;5104636;28;20207;-86
2023/07/23 05:27:51;;;;;;;4.70;3.23;;;22.40;52.10;;;;;;5101791;28;20184;-87
2023/07/23 05:30:17;;;;;;;4.10;3.23;;;22.30;52.10;;;;;;5100506;28;20509;-87
2023/07/23 05:32:43;;;;;;;3.80;3.50;;;22.50;52.00;;;;;;5105372;28;20170;-86
2023/07/23 05:35:09;;;;;;;3.40;3.10;;;22.50;51.80;;;;;;5104784;28;20181;-87
2023/07/23 05:37:35;;;;;;;3.80;3.03;;;22.60;51.70;;;;;;5104456;28;20193;-87
2023/07/23 05:40:03;;;;;;;3.43;3.10;;;22.60;51.70;;;;;;5107522;28;20186;-87
2023/07/23 05:42:31;;;;;;;3.57;3.27;;;22.60;51.70;;;;;;5105116;28;20174;-86
2023/07/23 05:44:57;;;;;;;4.20;3.27;;;22.70;51.70;;;;;;5105042;28;20219;-87
2023/07/23 05:47:23;;;;;;;2.93;2.70;;;22.70;51.60;;;;;;5102248;28;20274;-86
2023/07/23 05:49:48;;;;;;;3.60;3.13;;;22.70;51.60;;;;;;5106669;28;20264;-87
2023/07/23 05:52:17;;;;;;;3.50;3.20;;;22.80;51.50;;;;;;5104654;28;20518;-86
2023/07/23 05:54:42;;;;;;;3.43;3.10;;;22.90;51.40;;;;;;5100628;28;20189;-88
2023/07/23 05:57:08;;;;;;;3.30;3.00;;;22.90;51.30;;;;;;5099109;28;20187;-87
2023/07/23 05:59:36;;;;;;;3.73;3.10;;;22.90;51.40;;;;;;5099330;28;20711;-86
2023/07/23 06:02:01;;;;;;;3.50;2.90;;;22.90;51.40;;;;;;5099584;28;20520;-87
2023/07/23 06:04:27;;;;;;;3.57;3.10;;;23.00;51.40;;;;;;5102238;28;20293;-86
2023/07/23 06:06:52;;;;;;;3.60;2.77;;;23.00;51.30;;;;;;5100639;28;20189;-87
2023/07/23 06:09:18;;;;;;;3.27;2.70;;;23.00;51.30;;;;;;5101357;28;20181;-86
2023/07/23 06:11:44;;;;;;;5.83;3.07;;;23.10;51.60;;;;;;5101642;28;20243;-86
2023/07/23 06:14:10;;;;;;;2.93;2.63;;;23.10;51.20;;;;;;5100571;28;20186;-87
2023/07/23 06:16:35;;;;;;;3.70;2.97;;;23.20;51.10;;;;;;5100201;28;20189;-87
2023/07/23 06:19:02;;;;;;;3.70;3.10;;;23.20;51.20;;;;;;5100941;28;20373;-87
2023/07/23 06:21:30;;;;;;;3.03;2.63;;;23.20;51.20;;;;;;5100479;28;20182;-86
2023/07/23 06:23:56;;;;;;;5.07;2.70;;;23.20;51.20;;;;;;5102947;28;20214;-87
2023/07/23 06:26:21;;;;;;;4.27;3.10;;;23.20;51.10;;;;;;5103124;28;20375;-86
2023/07/23 06:28:48;;;;;;;3.00;2.70;;;23.20;51.10;;;;;;5100256;28;20270;-86
2023/07/23 06:31:14;;;;;;;4.17;3.10;;;23.30;51.10;;;;;;5103311;28;20331;-86
2023/07/23 06:33:39;;;;;;;3.60;2.93;;;23.30;51.10;;;;;;5100054;28;20272;-87
2023/07/23 06:36:05;;;;;;;3.07;2.77;;;23.30;51.20;;;;;;5100104;28;20572;-87
2023/07/23 06:38:34;;;;;;;2.73;2.53;;;23.40;51.10;;;;;;5103755;28;20189;-86
2023/07/23 06:41:04;;;;;;;3.17;2.87;;;23.40;51.20;;;;;;5106106;28;20193;-87
2023/07/23 06:43:32;;;;;;;4.10;2.67;;;23.40;51.50;;;;;;5104738;28;20556;-87
2023/07/23 06:45:58;;;;;;;4.27;3.10;;;23.40;51.10;;;;;;5106886;28;20293;-87
2023/07/23 06:48:28;;;;;;;2.93;2.40;;;23.50;51.30;;;;;;5105110;28;20281;-86
2023/07/23 06:50:55;;;;;;;3.50;2.43;;;23.40;51.20;;;;;;5104854;28;20335;-87
2023/07/23 06:53:21;;;;;;;4.30;2.73;;;23.40;51.20;;;;;;5101034;28;20170;-86
2023/07/23 06:56:07;;;;;;;4.67;3.10;;;23.40;51.20;;;;;;5100484;28;20227;-87
2023/07/23 06:58:36;;;;;;;3.70;3.20;;;23.50;51.10;;;;;;5102518;28;20210;-87
2023/07/23 07:01:03;;;;;;;3.00;2.70;;;23.50;51.00;;;;;;5101497;28;20189;-87
2023/07/23 07:03:29;;;;;;;4.27;2.87;;;23.50;51.00;;;;;;5113120;28;20186;-87
2023/07/23 07:06:01;;;;;;;3.50;2.60;;;23.50;50.90;;;;;;5099971;28;20178;-87
2023/07/23 07:08:28;;;;;;;3.77;2.70;;;23.60;50.90;;;;;;5106938;28;20470;-87
2023/07/23 07:11:02;;;;;;;3.50;2.90;;;23.60;51.00;;;;;;5106413;28;20428;-87
2023/07/23 07:13:29;;;;;;;2.90;2.70;;;23.60;50.90;;;;;;5100126;28;20189;-87
2023/07/23 07:15:55;;;;;;;3.33;2.70;;;23.70;51.10;;;;;;5103590;28;20222;-87
2023/07/23 07:18:21;;;;;;;3.53;2.63;;;23.70;51.10;;;;;;5105268;28;20221;-87
2023/07/23 07:20:55;;;;;;;4.40;3.17;;;23.70;51.10;;;;;;5102307;28;20473;-87
2023/07/23 07:23:21;;;;;;;5.87;2.73;;;23.80;51.10;;;;;;5105504;28;20275;-87
2023/07/23 07:25:46;;;;;;;3.20;2.70;;;23.80;50.90;;;;;;5106564;28;20257;-87
2023/07/23 07:28:13;;;;;;;3.37;2.40;;;23.80;51.20;;;;;;5106435;28;20323;-87
2023/07/23 07:30:42;;;;;;;3.27;2.80;;;23.80;51.00;;;;;;5101837;28;20564;-87
2023/07/23 07:33:07;;;;;;;3.03;2.70;;;23.90;51.00;;;;;;5100781;28;20675;-87
2023/07/23 07:35:33;;;;;;;2.97;2.63;;;23.90;50.90;;;;;;5103466;28;20182;-87
2023/07/23 07:38:00;;;;;;;3.53;2.43;;;23.90;50.90;;;;;;5099163;28;20427;-87
2023/07/23 07:40:28;;;;;;;3.90;2.90;;;23.90;50.80;;;;;;5101295;28;20178;-88
2023/07/23 07:42:53;;;;;;;5.77;3.53;;;23.80;50.90;;;;;;5099932;28;20194;-87
2023/07/23 07:45:22;;;;;;;3.77;2.93;;;23.80;51.20;;;;;;5103467;28;20273;-87
2023/07/23 07:47:48;;;;;;;3.37;2.77;;;23.80;51.20;;;;;;5100033;28;20182;-87
2023/07/23 07:50:14;;;;;;;3.83;2.30;;;23.80;51.40;;;;;;5099398;28;20209;-87
2023/07/23 07:52:42;;;;;;;3.63;2.80;;;23.70;51.40;;;;;;5100088;28;20179;-86
2023/07/23 07:55:08;;;;;;;4.40;3.47;;;23.70;51.30;;;;;;5101896;28;20177;-87
2023/07/23 07:57:36;;;;;;;3.30;2.80;;;23.80;51.30;;;;;;5100354;28;20260;-87
2023/07/23 08:00:03;;;;;;;3.97;2.73;;;23.90;51.40;;;;;;5100886;28;20186;-87
2023/07/23 08:02:29;;;;;;;3.27;2.57;;;23.80;51.80;;;;;;5101271;28;20576;-87
2023/07/23 08:04:57;;;;;;;2.70;2.50;;;23.80;51.70;;;;;;5099596;28;20824;-87
2023/07/23 08:07:23;;;;;;;2.80;2.60;;;23.70;51.70;;;;;;5100156;28;20244;-87
2023/07/23 08:09:54;;;;;;;3.00;2.70;;;23.60;51.80;;;;;;5103860;28;20190;-86
2023/07/23 08:12:23;;;;;;;3.37;2.27;;;23.70;51.70;;;;;;5098892;28;20178;-87
2023/07/23 08:14:52;;;;;;;3.77;2.67;;;23.70;51.80;;;;;;5103163;28;20432;-86
2023/07/23 08:17:20;;;;;;;3.10;2.60;;;23.70;51.90;;;;;;5108663;28;20246;-86
2023/07/23 08:19:46;;;;;;;2.80;2.47;;;23.70;51.70;;;;;;5099908;28;20193;-86
2023/07/23 08:22:12;;;;;;;3.83;2.80;;;23.70;51.70;;;;;;5100149;28;20182;-86
2023/07/23 08:24:38;;;;;;;3.53;2.70;;;23.80;51.70;;;;;;5100718;28;20580;-86
2023/07/23 08:27:07;;;;;;;2.60;2.40;;;23.70;51.70;;;;;;5099398;28;20186;-86
2023/07/23 08:29:34;;;;;;;4.47;2.67;;;23.70;51.90;;;;;;5101308;28;20442;-85
2023/07/23 08:32:01;;;;;;;2.73;2.53;;;23.70;52.00;;;;;;5102621;28;20559;-86
2023/07/23 08:34:30;;;;;;;3.73;2.60;;;23.70;52.00;;;;;;5100284;28;20241;-86
2023/07/23 08:36:56;;;;;;;3.50;2.73;;;23.70;52.10;;;;;;5103734;28;20213;-86
2023/07/23 08:39:22;;;;;;;2.70;2.50;;;23.70;52.00;;;;;;5104039;28;20540;-86
2023/07/23 08:41:54;;;;;;;2.77;2.40;;;23.70;52.10;;;;;;5098623;28;20254;-87
2023/07/23 08:44:29;;;;;;;3.77;2.40;;;23.80;52.20;;;;;;5125474;27;20454;-87
2023/07/23 08:47:16;;;;;;;2.90;2.50;;;23.90;52.10;;;;;;5106202;28;20181;-86
2023/07/23 08:49:43;;;;;;;4.03;2.67;;;23.90;52.00;;;;;;5098719;28;20179;-85
2023/07/23 08:52:15;;;;;;;2.90;2.53;;;23.90;52.50;;;;;;5101824;28;20232;-85
2023/07/23 08:54:41;;;;;;;3.60;2.40;;;24.00;52.20;;;;;;5101862;28;20190;-86
2023/07/23 08:57:08;;;;;;;2.80;2.40;;;23.90;52.10;;;;;;5102137;28;20198;-87
2023/07/23 08:59:39;;;;;;;3.37;2.17;;;24.00;52.40;;;;;;5102412;28;20182;-87
2023/07/23 09:02:09;;;;;;;4.77;2.03;;;23.90;52.60;;;;;;5098326;28;20177;-86
2023/07/23 09:04:38;;;;;;;3.80;2.70;;;23.80;52.80;;;;;;5108969;28;20267;-86
2023/07/23 09:07:12;;;;;;;4.63;2.43;;;23.90;52.80;;;;;;5096800;28;20209;-86
2023/07/23 09:09:37;;;;;;;3.07;2.47;;;23.90;52.80;;;;;;5107575;28;20233;-85
2023/07/23 09:12:03;;;;;;;4.47;2.30;;;24.00;53.00;;;;;;5099876;28;20564;-86
2023/07/23 09:14:29;;;;;;;2.70;2.40;;;24.10;52.90;;;;;;5097446;28;20195;-86
2023/07/23 09:16:55;;;;;;;2.90;2.60;;;24.00;53.90;;;;;;5098111;28;20182;-85
2023/07/23 09:19:23;;;;;;;3.20;2.60;;;24.00;53.40;;;;;;5098496;28;20232;-86
2023/07/23 09:21:52;;;;;;;4.57;2.60;;;24.00;53.00;;;;;;5097112;28;20565;-86
2023/07/23 09:24:21;;;;;;;3.00;2.70;;;24.00;53.20;;;;;;5099607;28;20333;-86
2023/07/23 09:26:46;;;;;;;4.57;2.77;;;24.10;53.30;;;;;;5095552;28;20490;-87
2023/07/23 09:29:12;;;;;;;4.10;2.70;;;24.00;53.70;;;;;;5098982;28;20178;-85
2023/07/23 09:31:43;;;;;;;3.30;2.50;;;24.00;54.40;;;;;;5101531;28;20524;-86
2023/07/23 09:34:09;;;;;;;3.83;2.70;;;23.90;54.70;;;;;;5097243;28;20391;-86
2023/07/23 09:36:35;;;;;;;3.17;2.57;;;24.00;55.10;;;;;;5095794;28;20183;-86
2023/07/23 09:39:04;;;;;;;2.93;2.70;;;23.90;53.80;;;;;;5098061;28;20194;-86
2023/07/23 09:41:38;;;;;;;3.10;2.60;;;23.80;56.40;;;;;;5098600;28;20187;-87
2023/07/23 09:44:12;;;;;;;3.27;2.40;;;23.70;56.90;;;;;;5095601;28;20198;-87
2023/07/23 09:46:45;;;;;;;3.50;2.47;;;23.40;56.30;;;;;;5101466;28;20446;-87
2023/07/23 09:49:14;;;;;;;2.87;2.57;;;23.40;57.60;;;;;;5094590;28;20181;-86
2023/07/23 09:51:50;;;;;;;2.77;2.37;;;23.50;56.90;;;;;;5100238;28;20336;-87
2023/07/23 09:54:17;;;;;;;4.30;2.60;;;23.60;57.80;;;;;;5094606;28;20635;-88
2023/07/23 09:56:44;;;;;;;3.63;2.70;;;23.90;56.10;;;;;;5099416;28;20190;-87
2023/07/23 09:59:14;;;;;;;3.03;2.43;;;23.90;56.30;;;;;;5098050;28;20171;-87
2023/07/23 10:01:40;;;;;;;3.87;2.70;;;23.90;57.50;;;;;;5101019;28;20178;-88
2023/07/23 10:04:07;;;;;;;3.10;2.57;;;23.60;58.40;;;;;;5099291;28;20205;-87
2023/07/23 10:06:32;;;;;;;2.70;2.30;;;23.60;56.60;;;;;;5096240;28;20247;-87
2023/07/23 10:09:02;;;;;;;3.00;2.63;;;23.70;57.10;;;;;;5096961;28;20213;-88
2023/07/23 10:11:29;;;;;;;2.87;2.50;;;23.80;57.50;;;;;;5098148;28;20177;-88
2023/07/23 10:13:55;;;;;;;3.03;2.47;;;23.70;58.80;;;;;;5097839;28;20181;-87
2023/07/23 10:16:31;;;;;;;2.37;2.17;;;23.50;57.70;;;;;;5097727;28;20175;-88
2023/07/23 10:18:58;;;;;;;4.07;2.30;;;23.50;58.80;;;;;;5098832;28;20279;-88
2023/07/23 10:21:24;;;;;;;3.30;2.50;;;23.60;58.70;;;;;;5096509;28;20628;-89
2023/07/23 10:23:57;;;;;;;2.60;2.40;;;23.50;59.20;;;;;;5092618;28;20190;-89
2023/07/23 10:26:28;;;;;;;2.67;2.40;;;23.60;59.40;;;;;;5100035;28;20640;-89
2023/07/23 10:29:09;;;;;;;6.03;2.30;;;23.50;57.90;;;;;;5101933;28;20166;-88
2023/07/23 10:31:35;;;;;;;6.50;2.63;;;23.60;59.30;;;;;;5099170;28;20174;-87
2023/07/23 10:34:03;;;;;;;3.43;2.70;;;23.70;58.70;;;;;;5100043;28;20231;-88
2023/07/23 10:36:29;;;;;;;5.17;2.67;;;23.90;58.10;;;;;;5098045;28;20179;-88
2023/07/23 10:39:15;;;;;;;4.80;2.80;;;23.60;59.60;;;;;;5100150;28;20445;-89
2023/07/23 10:41:55;;;;;;;2.73;2.43;;;23.60;59.00;;;;;;5100913;28;20193;-88
2023/07/23 10:44:30;;;;;;;3.70;2.57;;;23.60;58.80;;;;;;5099528;28;20603;-88
2023/07/23 10:46:57;;;;;;;4.70;2.63;;;23.50;60.30;;;;;;5100291;28;20288;-88
2023/07/23 10:49:30;;;;;;;5.03;2.43;;;23.60;59.40;;;;;;5095524;28;20190;-88
2023/07/23 10:52:12;;;;;;;5.47;2.63;;;23.70;60.20;;;;;;5101513;28;20186;-88
2023/07/23 10:54:38;;;;;;;3.90;2.90;;;23.80;59.20;;;;;;5098848;28;20572;-87
2023/07/23 10:57:07;;;;;;;4.50;2.90;;;24.00;58.50;;;;;;5090630;28;20178;-88
2023/07/23 10:59:34;;;;;;;5.80;3.10;;;24.20;60.40;;;;;;5095699;28;20241;-88
2023/07/23 11:02:07;;;;;;;6.03;3.27;;;24.30;59.50;;;;;;5101214;28;20215;-88
2023/07/23 11:04:38;;;;;;;5.60;3.17;;;24.30;58.90;;;;;;5100583;28;20256;-89
2023/07/23 11:07:06;;;;;;;5.67;3.43;;;24.30;59.90;;;;;;5100263;28;20343;-88
2023/07/23 11:09:37;;;;;;;5.10;3.30;;;24.20;58.60;;;;;;5102632;28;20185;-88
2023/07/23 11:12:05;;;;;;;5.60;2.90;;;24.30;59.40;;;;;;5098712;28;20178;-88
2023/07/23 11:14:32;;;;;;;5.03;3.00;;;24.30;58.70;;;;;;5102851;28;20170;-88
2023/07/23 11:17:02;;;;;;;7.23;2.90;;;24.30;60.80;;;;;;5100602;28;20175;-88
2023/07/23 11:19:30;;;;;;;4.77;2.70;;;24.20;60.30;;;;;;5107283;28;20178;-88
2023/07/23 11:22:02;;;;;;;3.20;2.70;;;24.20;61.40;;;;;;5101188;28;20186;-88
2023/07/23 11:24:30;;;;;;;4.13;2.80;;;24.20;62.40;;;;;;5101632;28;20202;-88
2023/07/23 11:26:57;;;;;;;3.90;2.73;;;24.30;59.20;;;;;;5101527;28;20210;-88
2023/07/23 11:29:24;;;;;;;3.27;2.40;;;24.30;59.30;;;;;;5111738;28;20216;-88
2023/07/23 11:31:51;;;;;;;3.07;2.30;;;24.30;61.10;;;;;;5102394;28;20209;-88
2023/07/23 11:34:17;;;;;;;3.50;2.70;;;24.40;62.30;;;;;;5100200;28;20198;-88
2023/07/23 11:36:42;;;;;;;3.77;2.30;;;24.40;59.80;;;;;;5104600;28;20467;-88
2023/07/23 11:39:09;;;;;;;3.63;2.10;;;24.50;59.20;;;;;;5104228;28;20216;-88
2023/07/23 11:41:40;;;;;;;2.80;2.40;;;24.50;60.30;;;;;;5102599;28;20218;-88
2023/07/23 11:44:07;;;;;;;2.67;2.27;;;24.50;59.60;;;;;;5105488;28;20211;-87
2023/07/23 11:46:34;;;;;;;7.97;2.40;;;24.50;59.30;;;;;;5105614;28;20174;-88
2023/07/23 11:49:34;;;;;;;6.60;2.70;;;24.50;59.70;;;;;;5101902;28;20178;-89
2023/07/23 11:52:01;;;;;;;3.13;2.20;;;24.50;60.70;;;;;;5097354;28;20659;-88
2023/07/23 11:54:27;;;;;;;2.30;1.90;;;24.50;60.30;;;;;;5110758;28;20183;-88
2023/07/23 11:56:53;;;;;;;4.00;2.23;;;24.60;59.10;;;;;;5105020;28;20213;-87
2023/07/23 11:59:19;;;;;;;3.27;2.03;;;24.50;59.70;;;;;;5101647;28;20229;-88
2023/07/23 12:01:45;;;;;;;4.80;2.10;;;24.50;59.10;;;;;;5110827;28;20201;-86
2023/07/23 12:04:11;;;;;;;2.47;1.80;;;24.50;59.60;;;;;;5101371;28;20210;-88
2023/07/23 12:06:38;;;;;;;3.53;2.10;;;24.60;59.30;;;;;;5099541;28;20189;-88
2023/07/23 12:09:11;;;;;;;3.97;1.90;;;24.60;59.50;;;;;;5098845;28;20288;-88
2023/07/23 12:11:39;;;;;;;4.17;2.00;;;24.60;59.20;;;;;;5105419;28;20548;-88
2023/07/23 12:14:11;;;;;;;3.00;1.83;;;24.70;59.10;;;;;;5107509;28;20194;-88
2023/07/23 12:16:50;;;;;;;2.77;1.70;;;24.60;62.50;;;;;;5103219;28;20234;-88
2023/07/23 12:19:20;;;;;;;2.00;1.80;;;24.60;59.60;;;;;;5106624;28;20460;-88
2023/07/23 12:21:58;;;;;;;3.70;1.77;;;24.60;59.20;;;;;;5102624;28;20253;-88
2023/07/23 12:24:31;;;;;;;4.40;2.00;;;24.70;59.40;;;;;;5105693;28;20232;-88
2023/07/23 12:27:04;;;;;;;2.37;2.07;;;24.70;59.30;;;;;;5106393;28;20193;-89
2023/07/23 12:29:30;;;;;;;2.17;1.93;;;24.70;60.10;;;;;;5104499;28;20182;-88
2023/07/23 12:32:12;;;;;;;1.93;1.50;;;24.80;59.60;;;;;;5103882;28;20201;-88
2023/07/23 12:34:42;;;;;;;1.87;1.70;;;24.80;61.90;;;;;;5100658;28;20256;-88
2023/07/23 12:37:08;;;;;;;1.60;1.43;;;24.80;59.80;;;;;;5109264;28;20344;-88
2023/07/23 12:39:36;;;;;;;2.10;1.60;;;24.80;59.60;;;;;;5105921;28;20178;-88
2023/07/23 12:42:02;;;;;;;4.07;1.80;;;24.80;59.30;;;;;;5096561;28;20248;-88
2023/07/23 12:44:31;;;;;;;2.10;1.87;;;24.80;59.10;;;;;;5102003;28;20499;-88
2023/07/23 12:46:56;;;;;;;2.37;1.80;;;24.80;59.70;;;;;;5104466;28;20203;-88
2023/07/23 12:49:26;;;;;;;2.40;1.90;;;24.70;60.50;;;;;;5101350;28;20174;-88
2023/07/23 12:51:51;;;;;;;2.57;1.67;;;24.70;60.00;;;;;;5105500;28;20231;-88